Pagrindinis puslapis
METAR-TAF:

METAR-TAF

Oro uostai :

Rabato oro uostas

Rabatas, Marokas

platuma: 34-03N, ilguma: 006-46W, Aukštis: 84 m

Dabartinis oras

Ataskaita buvo paskelbta 35 minutes, ne 17:30 UTC
Vėjas 6 kt iš Vakarų, svyruoja nuo Vakarų/Pietvakarių ir Vakarų/Šiaurės Vakarų
Temperatūra 20°C
Drėgmė 64%
Slėgis 1017 hPa
Matomumas: 7000 m
Išsisklaidę debesys ne aukštis 1300 ft
Išsisklaidę debesys ne aukštis 1600 ft
Su prošvaistėmis ne aukštis 10000 ft

METAR: GMME 221730Z 26006KT 240V300 7000 SCT013 SCT016 BKN100 20/13 Q1017 NOSIG

Laikas: 19:05 (18:05 UTC)

Prognozė

Ataskaita buvo paskelbta 1 valandą ir 5 minutes, ne 17:00 UTC
Prognozė galioja nuo 22 metu 18 UTC su 23 metu 24 UTC
Vėjas 10 kt iš Vakarų/Pietvakarių
Matomumas: 7000 m
Išsisklaidę debesys ne aukštis 1300 ft
Su prošvaistėmis ne aukštis 1600 ft
Tapsmas
nuo 22 metu 20 UTC su 22 metu 22 UTC
Vėjas 9 kt iš Pietų

TAF: GMME 221700Z 2218/2324 25010KT 7000 SCT013 BKN016 BECMG 2220/2222 18009KT

Orai ataskaitas ir orų prognozės (METAR, TAF).

turimą stotys yra geltonos ir raudonos taškus žemėlapyje.

Perkelti pele per norėdami pamatyti stoties vardą.

Tada spustelėkite, norėdami matyti oro stebėjimo ir prognozės.

Norėdami pakeisti žemėlapį: spustelėkite ant žalios mygtukų su juodo kryžiaus žemyn,; žalią mygtuką su brūkšneliu, jei norite nutolinti; arba žalių rodyklių gretimoms žemėlapius.


METAR-TAF: